Flight Track Log - Related Links

Times and Time Zones

All times are in EDT time to prevent confusion due to time zone crossing. See the AWE1534 flight status page for this flight to view local times or setup timezone preferences in your user account.

Time Position Orientation Groundspeed Altitude Reporting Facility
EDT Latitude Longitude Course Direction KTS MPH feet Rate Location/Type
Thu 10:21:15 PM 35.1851 -80.9284 203° Southwest  Level FlightAware Approximate
Thu 10:22:15 PM 35.0834 -80.9943 34° Northeast  Level FlightAware Approximate
Thu 10:23:37 PM 35.1267 -80.9583 272° West 209 241 4,000  Level Atlanta Center
Thu 10:25:28 PM 35.1297 -81.0775 16° North 259 298 8,400 2,351 Climbing Atlanta Center
Thu 10:26:28 PM 35.2125 -81.0492 14° North 243 280 10,700 2,050 Climbing Atlanta Center
Thu 10:27:28 PM 35.3139 -81.0175 14° North 300 345 12,500 2,250 Climbing Atlanta Center
Thu 10:28:28 PM 35.4175 -80.9858 16° North 355 409 15,200 2,300 Climbing Atlanta Center
Thu 10:29:28 PM 35.5250 -80.9486 21° North 384 442 17,100 2,100 Climbing Atlanta Center
Thu 10:30:28 PM 35.6300 -80.8986 24° Northeast 396 456 19,400 2,100 Climbing Atlanta Center
Thu 10:31:28 PM 35.7350 -80.8408 24° Northeast 401 461 21,300 1,800 Climbing Atlanta Center
Thu 10:32:28 PM 35.8400 -80.7831 24° Northeast 413 475 23,000 1,600 Climbing Atlanta Center
Thu 10:33:28 PM 35.9508 -80.7219 25° Northeast 419 482 24,500 1,500 Climbing Atlanta Center
Thu 10:34:28 PM 36.0617 -80.6583 25° Northeast 424 488 26,000 1,450 Climbing Atlanta Center
Thu 10:35:28 PM 36.1725 -80.5947 25° Northeast 435 501 27,400 1,250 Climbing Atlanta Center
Thu 10:36:28 PM 36.2814 -80.5308 24° Northeast 435 501 28,500 1,050 Climbing Atlanta Center
Thu 10:37:28 PM 36.3983 -80.4664 24° Northeast 441 507 29,500 1,123 Climbing Atlanta Center
Thu 10:39:51 PM 36.6764 -80.3106 25° Northeast 450 518 32,300 1,164 Climbing Washington Center
Thu 10:40:49 PM 36.7939 -80.2425 24° Northeast 450 518 33,400 1,119 Climbing Washington Center
Thu 10:41:49 PM 36.8961 -80.1864 25° Northeast 450 518 34,500 800 Climbing Washington Center
Thu 10:42:49 PM 37.0156 -80.1181 25° Northeast 450 518 35,000 250 Climbing Washington Center
Thu 10:43:49 PM 37.1308 -80.0519 25° Northeast 450 518 35,000  Level Washington Center
Thu 10:44:51 PM 37.2458 -79.9856 24° Northeast 450 518 35,000  Level Washington Center
Thu 10:45:51 PM 37.3736 -79.9144 26° Northeast 450 518 35,000  Level Washington Center
Thu 10:46:49 PM 37.4889 -79.8450 25° Northeast 450 518 35,000  Level Washington Center
Thu 10:47:50 PM 37.5994 -79.7806 24° Northeast 450 518 35,000  Level Washington Center
Thu 10:48:51 PM 37.7208 -79.7136 26° Northeast 455 524 35,000  Level Washington Center
Thu 10:49:49 PM 37.8336 -79.6436 25° Northeast 455 524 35,000  Level Washington Center
Thu 10:50:50 PM 37.9486 -79.5761 24° Northeast 455 524 35,000  Level Washington Center
Thu 10:51:49 PM 38.0528 -79.5158 26° Northeast 450 518 35,000  Level Washington Center
Thu 10:52:49 PM 38.1633 -79.4475 25° Northeast 455 524 35,000  Level Washington Center
Thu 10:53:49 PM 38.2803 -79.3794 25° Northeast 450 518 35,000  Level Washington Center
Thu 10:54:50 PM 38.3928 -79.3136 25° Northeast 450 518 35,000  Level Washington Center
Thu 10:55:49 PM 38.5183 -79.2378 29° Northeast 450 518 35,000  Level Washington Center
Thu 10:56:49 PM 38.6247 -79.1633 25° Northeast 444 511 35,000  Level Washington Center
Thu 10:57:49 PM 38.7414 -79.0944 26° Northeast 444 511 35,000  Level Washington Center
Thu 10:58:49 PM 38.8539 -79.0250 26° Northeast 444 511 35,000  Level Washington Center
Thu 10:59:50 PM 38.9664 -78.9556 25° Northeast 449 517 35,000  Level Washington Center
Thu 11:00:49 PM 39.0808 -78.8861 25° Northeast 449 517 35,000  Level Washington Center
Thu 11:02:23 PM 39.2628 -78.7761 25° Northeast 450 518 35,000  Level Cleveland Center
Thu 11:03:23 PM 39.3764 -78.7086 26° Northeast 450 518 35,000  Level Cleveland Center
Thu 11:04:23 PM 39.4897 -78.6356 25° Northeast 450 518 35,000  Level Cleveland Center
Thu 11:05:23 PM 39.6053 -78.5650 25° Northeast 450 518 35,000  Level Cleveland Center
Thu 11:06:23 PM 39.7208 -78.4942 27° Northeast 450 518 35,000  Level Cleveland Center
Thu 11:07:23 PM 39.8339 -78.4203 26° Northeast 450 518 35,000  Level Cleveland Center
Thu 11:08:23 PM 39.9472 -78.3489 27° Northeast 450 518 35,000  Level Cleveland Center
Thu 11:09:23 PM 40.0644 -78.2717 25° Northeast 456 525 35,000  Level Cleveland Center
Thu 11:10:23 PM 40.1797 -78.2000 26° Northeast 461 531 35,000  Level Cleveland Center
Thu 11:12:09 PM 40.3797 -78.0708 27° Northeast 468 539 35,000  Level New York Center
Thu 11:13:09 PM 40.4950 -77.9931 26° Northeast 468 539 35,000  Level New York Center
Thu 11:14:07 PM 40.6100 -77.9203 25° Northeast 463 533 35,000 -303 Level New York Center
Thu 11:15:08 PM 40.7289 -77.8478 27° Northeast 463 533 34,400 -793 Descending New York Center
Thu 11:16:08 PM 40.8419 -77.7717 26° Northeast 463 533 33,400 -950 Descending New York Center
Thu 11:17:08 PM 40.9567 -77.6983 25° Northeast 463 533 32,500 -942 Descending New York Center
Thu 11:18:09 PM 41.0778 -77.6225 27° Northeast 463 533 31,500 -1,008 Descending New York Center
Thu 11:19:07 PM 41.1883 -77.5481 26° Northeast 473 544 30,500 -958 Descending New York Center
Thu 11:20:08 PM 41.3094 -77.4692 26° Northeast 478 550 29,600 -934 Descending New York Center
Thu 11:21:09 PM 41.4283 -77.3925 27° Northeast 484 557 28,600 -1,140 Descending New York Center
Thu 11:22:09 PM 41.5628 -77.3003 27° Northeast 490 564 27,300 -1,282 Descending New York Center
Thu 11:23:06 PM 41.6858 -77.2178 27° Northeast 490 564 26,100 -1,271 Descending New York Center
Thu 11:24:07 PM 41.8114 -77.1325 27° Northeast 490 564 24,800 -1,328 Descending New York Center
Thu 11:25:08 PM 41.9344 -77.0494 26° Northeast 490 564 23,400 -1,438 Descending New York Center
Thu 11:26:08 PM 42.0572 -76.9689 26° Northeast 490 564 21,900 -1,966 Descending New York Center
Thu 11:27:07 PM 42.1781 -76.8881 28° Northeast 490 564 19,500 -2,579 Descending New York Center
Thu 11:28:09 PM 42.2906 -76.8086 25° Northeast 473 544 16,700 -2,974 Descending New York Center
Thu 11:29:04 PM 42.3958 -76.7422 27° Northeast 446 513 13,700 -2,917 Descending Boston Center
Thu 11:29:58 PM 42.4922 -76.6756 27° Northeast 429 494 11,400 -1,357 Descending Boston Center
Thu 11:30:59 PM 42.5972 -76.6036 24° Northeast 420 483 11,100 -149 Descending Boston Center
Thu 11:31:59 PM 42.7036 -76.5403 18° North 421 484 11,100 -47 Level Boston Center
Thu 11:33:06 PM 42.8181 -76.4883 13° North 356 410 11,000 -1,078 Descending Boston Center
Thu 11:34:07 PM 42.9025 -76.4628 North 305 351 8,800 -2,281 Descending Boston Center
Thu 11:35:07 PM 42.9842 -76.4511 North 293 337 6,400 -2,281 Descending Boston Center
Thu 11:36:08 PM 43.0619 -76.4333 57° Northeast 293 337 4,200 -1,983 Descending Boston Center
Thu 11:37:02 PM 43.0981 -76.3561 85° East 263 303 2,600 -835 Descending Boston Center
Thu 11:38:03 PM 43.1028 -76.2794 87° East 197 227 2,600 -393 Level Boston Center
Thu 11:39:04 PM 43.1047 -76.2200 87° East 166 191 1,800 -787 Descending Boston Center

Login

Don't have an account? Register now (free) for customized features, flight alerts, and more!